createdAt,value
2023-02-09T00:01:25.617Z,8.75
2023-02-09T00:03:53.088Z,8.60
2023-02-09T00:06:23.080Z,9.32
2023-02-09T00:08:50.599Z,9.27
2023-02-09T00:11:46.785Z,9.27
2023-02-09T00:14:18.178Z,9.07
2023-02-09T00:16:46.280Z,9.38
2023-02-09T00:19:14.251Z,8.82
2023-02-09T00:21:41.561Z,8.57
2023-02-09T00:24:12.938Z,9.27
2023-02-09T00:26:41.407Z,8.95
2023-02-09T00:29:09.496Z,9.10
2023-02-09T00:31:36.858Z,9.15
2023-02-09T00:34:04.844Z,8.63
2023-02-09T00:36:32.013Z,9.35
2023-02-09T00:38:59.659Z,9.23
2023-02-09T00:41:44.965Z,8.27
2023-02-09T00:44:12.748Z,9.35
2023-02-09T00:46:39.709Z,8.63
2023-02-09T00:49:06.954Z,8.70
2023-02-09T00:51:34.429Z,9.57
2023-02-09T00:54:02.889Z,9.52
2023-02-09T00:56:29.653Z,9.32
2023-02-09T00:58:56.473Z,8.68
2023-02-09T01:01:25.099Z,9.20
2023-02-09T01:03:53.302Z,8.95
2023-02-09T01:06:20.981Z,8.73
2023-02-09T01:08:47.844Z,9.20
2023-02-09T01:11:16.628Z,9.30
2023-02-09T01:13:45.046Z,9.63
2023-02-09T01:16:16.616Z,8.82
2023-02-09T01:18:44.273Z,9.10
2023-02-09T01:21:19.193Z,8.98
2023-02-09T01:23:48.023Z,9.48
2023-02-09T01:26:18.953Z,9.38
2023-02-09T01:28:50.738Z,9.90
2023-02-09T01:31:21.172Z,8.30
2023-02-09T01:33:50.885Z,9.48
2023-02-09T01:36:17.948Z,9.45
2023-02-09T01:38:45.255Z,9.48
2023-02-09T01:41:12.131Z,9.35
2023-02-09T01:44:17.259Z,9.02
2023-02-09T01:46:46.699Z,9.65
2023-02-09T01:49:19.448Z,9.18
2023-02-09T01:52:12.985Z,9.25
2023-02-09T01:55:13.910Z,8.88
2023-02-09T01:57:48.882Z,8.88
2023-02-09T02:00:20.151Z,9.52
2023-02-09T02:02:57.567Z,9.45
2023-02-09T02:05:26.614Z,8.70
2023-02-09T02:08:07.717Z,8.85
2023-02-09T02:10:34.694Z,8.90
2023-02-09T02:13:03.263Z,9.25
2023-02-09T02:15:43.429Z,8.90
2023-02-09T02:18:48.822Z,8.80
2023-02-09T02:21:56.861Z,8.98
2023-02-09T02:25:12.799Z,9.30
2023-02-09T02:27:44.607Z,8.77
2023-02-09T02:30:57.877Z,9.23
2023-02-09T02:33:29.048Z,8.93
2023-02-09T02:36:07.086Z,9.18
2023-02-09T02:38:39.601Z,8.85
2023-02-09T02:41:19.552Z,8.70
2023-02-09T02:44:09.105Z,8.93
2023-02-09T02:46:46.195Z,8.45
2023-02-09T02:49:33.461Z,8.23
2023-02-09T02:52:07.939Z,8.57
2023-02-09T02:54:40.989Z,9.45
2023-02-09T02:57:18.861Z,9.68
2023-02-09T03:00:16.581Z,9.13
2023-02-09T03:02:59.854Z,9.20
2023-02-09T03:05:28.067Z,8.80
2023-02-09T03:07:54.946Z,9.30
2023-02-09T03:10:36.077Z,8.73
2023-02-09T03:13:38.898Z,8.88
2023-02-09T03:16:33.760Z,8.82
2023-02-09T03:19:16.131Z,8.68
2023-02-09T03:22:12.194Z,8.45
2023-02-09T03:24:55.257Z,9.23
2023-02-09T03:27:29.015Z,9.18
2023-02-09T03:30:01.046Z,8.73
2023-02-09T03:32:28.529Z,9.15
2023-02-09T03:34:56.711Z,8.40
2023-02-09T03:37:24.618Z,8.20
2023-02-09T03:39:51.429Z,8.63
2023-02-09T03:42:19.031Z,8.40
2023-02-09T03:44:45.831Z,8.52
2023-02-09T03:47:12.668Z,7.97
2023-02-09T03:49:41.753Z,8.27
2023-02-09T03:52:13.316Z,8.63
2023-02-09T03:54:41.062Z,9.32
2023-02-09T03:57:10.138Z,8.43
2023-02-09T03:59:37.993Z,8.82
2023-02-09T04:02:08.195Z,9.07
2023-02-09T04:04:36.474Z,9.13
2023-02-09T04:07:04.175Z,8.10
2023-02-09T04:09:31.047Z,8.80
2023-02-09T04:11:57.867Z,7.85
2023-02-09T04:14:24.788Z,7.93
2023-02-09T04:16:51.650Z,8.82
2023-02-09T04:19:18.433Z,8.45
2023-02-09T04:21:45.415Z,8.85
2023-02-09T04:24:12.794Z,8.80
2023-02-09T04:26:39.733Z,8.93
2023-02-09T04:29:06.572Z,7.72
2023-02-09T04:31:34.876Z,8.60
2023-02-09T04:34:02.041Z,8.15
2023-02-09T04:36:29.105Z,8.60
2023-02-09T04:38:56.209Z,7.88
2023-02-09T04:41:23.312Z,7.75
2023-02-09T04:43:50.135Z,7.75
2023-02-09T04:46:18.769Z,7.75
2023-02-09T04:48:46.275Z,8.27
2023-02-09T04:51:13.681Z,8.07
2023-02-09T04:53:40.768Z,8.23
2023-02-09T04:56:07.769Z,8.25
2023-02-09T04:58:53.241Z,7.82
2023-02-09T05:01:24.397Z,8.00
2023-02-09T05:03:52.168Z,8.18
2023-02-09T05:06:20.154Z,7.85
2023-02-09T05:08:47.256Z,7.68
2023-02-09T05:11:14.699Z,8.13
2023-02-09T05:13:42.366Z,8.18
2023-02-09T05:16:14.986Z,7.30
2023-02-09T05:18:41.842Z,7.90
2023-02-09T05:21:08.700Z,7.65
2023-02-09T05:23:35.508Z,8.07
2023-02-09T05:26:02.460Z,7.50
2023-02-09T05:28:29.374Z,7.85
2023-02-09T05:30:56.511Z,8.63
2023-02-09T05:33:25.543Z,7.60
2023-02-09T05:35:55.724Z,7.65
2023-02-09T05:38:23.019Z,7.70
2023-02-09T05:40:50.466Z,7.93
2023-02-09T05:43:17.821Z,7.18
2023-02-09T05:45:46.571Z,8.32
2023-02-09T05:48:13.508Z,7.57
2023-02-09T05:50:40.579Z,7.45
2023-02-09T05:53:09.107Z,7.72
2023-02-09T05:55:35.995Z,7.85
2023-02-09T05:58:02.993Z,7.97
2023-02-09T06:00:30.118Z,7.82
2023-02-09T06:02:58.408Z,8.80
2023-02-09T06:05:26.066Z,8.25
2023-02-09T06:07:53.232Z,8.57
2023-02-09T06:10:20.715Z,7.97
2023-02-09T06:12:47.620Z,7.72
2023-02-09T06:15:18.021Z,8.30
2023-02-09T06:17:44.941Z,8.65
2023-02-09T06:20:12.368Z,7.88
2023-02-09T06:22:39.244Z,7.80
2023-02-09T06:25:06.743Z,8.25
2023-02-09T06:27:33.595Z,8.30
2023-02-09T06:30:00.373Z,8.05
2023-02-09T06:32:27.254Z,7.70
2023-02-09T06:34:54.098Z,7.97
2023-02-09T06:37:20.866Z,8.35
2023-02-09T06:39:47.649Z,7.63
2023-02-09T06:42:14.474Z,8.07
2023-02-09T06:44:41.331Z,7.85
2023-02-09T06:47:08.143Z,8.52
2023-02-09T06:49:34.957Z,7.97
2023-02-09T06:52:02.401Z,8.73
2023-02-09T06:54:29.368Z,7.90
2023-02-09T06:56:56.254Z,8.93
2023-02-09T06:59:23.331Z,8.43
2023-02-09T07:01:54.593Z,8.35
2023-02-09T07:04:22.071Z,8.50
2023-02-09T07:06:48.898Z,8.35
2023-02-09T07:09:15.672Z,8.35
2023-02-09T07:11:42.596Z,8.20
2023-02-09T07:14:09.401Z,8.90
2023-02-09T07:16:36.148Z,8.75
2023-02-09T07:19:03.150Z,8.93
2023-02-09T07:21:30.054Z,8.00
2023-02-09T07:23:56.911Z,9.18
2023-02-09T07:26:23.803Z,9.00
2023-02-09T07:28:50.625Z,8.73
2023-02-09T07:31:18.518Z,8.65
2023-02-09T07:33:46.473Z,9.63
2023-02-09T07:36:16.154Z,8.63
2023-02-09T07:38:43.998Z,8.57
2023-02-09T07:41:27.765Z,8.30
2023-02-09T07:43:56.697Z,9.25
2023-02-09T07:46:25.485Z,8.13
2023-02-09T07:48:52.406Z,8.15
2023-02-09T07:51:25.231Z,9.50
2023-02-09T07:53:53.916Z,9.00
2023-02-09T07:56:24.011Z,9.38
2023-02-09T07:58:51.801Z,8.45
2023-02-09T08:01:19.366Z,8.85
2023-02-09T08:03:50.107Z,8.25
2023-02-09T08:06:41.618Z,8.40
2023-02-09T08:09:11.617Z,8.80
2023-02-09T08:11:55.838Z,8.50
2023-02-09T08:14:28.926Z,9.80
2023-02-09T08:17:20.088Z,8.82
2023-02-09T08:20:11.729Z,8.93
2023-02-09T08:22:45.086Z,9.80
2023-02-09T08:25:14.671Z,8.63
2023-02-09T08:27:43.313Z,8.90
2023-02-09T08:30:12.808Z,9.30
2023-02-09T08:32:39.674Z,8.93
2023-02-09T08:35:07.419Z,8.07
2023-02-09T08:37:34.216Z,8.85
2023-02-09T08:40:01.131Z,9.15
2023-02-09T08:42:28.635Z,9.13
2023-02-09T08:44:55.453Z,8.75
2023-02-09T08:47:22.798Z,9.45
2023-02-09T08:49:51.044Z,8.90
2023-02-09T08:52:18.715Z,9.57
2023-02-09T08:54:45.531Z,8.80
2023-02-09T08:57:12.281Z,8.77
2023-02-09T08:59:39.140Z,8.35
2023-02-09T09:02:06.389Z,9.25
2023-02-09T09:04:33.189Z,9.02
2023-02-09T09:07:00.001Z,8.88
2023-02-09T09:09:26.866Z,8.90
2023-02-09T09:11:53.679Z,9.95
2023-02-09T09:14:20.568Z,9.02
2023-02-09T09:16:47.426Z,9.60
2023-02-09T09:19:14.373Z,9.15
2023-02-09T09:21:41.265Z,9.15
2023-02-09T09:24:08.314Z,8.80
2023-02-09T09:26:35.688Z,9.25
2023-02-09T09:29:02.921Z,8.85
2023-02-09T09:31:30.886Z,8.98
2023-02-09T09:33:57.752Z,10.57
2023-02-09T09:36:24.547Z,8.35
2023-02-09T09:38:51.542Z,9.80
2023-02-09T09:41:24.954Z,9.63
2023-02-09T09:43:53.641Z,8.98
2023-02-09T09:46:34.010Z,9.70
2023-02-09T09:49:01.561Z,9.38
2023-02-09T09:51:44.120Z,9.45
2023-02-09T09:54:31.536Z,9.65
2023-02-09T09:56:59.298Z,9.98
2023-02-09T09:59:35.047Z,10.18
2023-02-09T10:02:33.488Z,9.68
2023-02-09T10:05:35.170Z,9.90
2023-02-09T10:08:26.689Z,8.98
2023-02-09T10:11:05.065Z,8.55
2023-02-09T10:13:39.749Z,9.82
2023-02-09T10:16:25.399Z,9.35
2023-02-09T10:19:06.462Z,9.38
2023-02-09T10:21:36.175Z,9.35
2023-02-09T10:24:13.798Z,9.95
2023-02-09T10:26:42.767Z,10.07
2023-02-09T10:29:12.328Z,10.07
2023-02-09T10:31:44.747Z,11.05
2023-02-09T10:34:23.552Z,11.02
2023-02-09T10:37:13.624Z,10.98
2023-02-09T10:39:40.749Z,10.13
2023-02-09T10:42:31.407Z,11.60
2023-02-09T10:45:25.513Z,10.02
2023-02-09T10:48:11.799Z,11.23
2023-02-09T10:51:29.553Z,10.75
2023-02-09T10:54:18.505Z,11.25
2023-02-09T10:56:49.070Z,10.88
2023-02-09T10:59:20.915Z,10.90
2023-02-09T11:02:00.526Z,11.25
2023-02-09T11:04:40.285Z,10.90
2023-02-09T11:07:14.830Z,10.88
2023-02-09T11:09:53.050Z,11.07
2023-02-09T11:12:22.637Z,12.02
2023-02-09T11:14:49.658Z,11.65
2023-02-09T11:17:44.649Z,12.23
2023-02-09T11:20:36.810Z,12.02
2023-02-09T11:23:39.438Z,12.82
2023-02-09T11:26:43.856Z,12.18
2023-02-09T11:29:35.629Z,12.88
2023-02-09T11:32:19.224Z,12.95
2023-02-09T11:35:12.321Z,12.23
2023-02-09T11:38:13.716Z,11.93
2023-02-09T11:40:48.143Z,13.07
2023-02-09T11:43:27.494Z,12.60
2023-02-09T11:46:05.160Z,12.50
2023-02-09T11:48:39.194Z,12.88
2023-02-09T11:51:15.121Z,13.45
2023-02-09T11:54:07.421Z,12.88
2023-02-09T11:56:41.917Z,12.95
2023-02-09T11:59:41.137Z,13.30
2023-02-09T12:02:33.218Z,12.95
2023-02-09T12:05:02.239Z,13.82
2023-02-09T12:08:22.455Z,12.52
2023-02-09T12:11:10.459Z,12.82
2023-02-09T12:13:58.741Z,12.88
2023-02-09T12:16:39.353Z,12.82
2023-02-09T12:19:28.720Z,13.07
2023-02-09T12:21:55.519Z,13.80
2023-02-09T12:24:40.610Z,13.77
2023-02-09T12:27:26.947Z,13.55
2023-02-09T12:29:53.910Z,13.85
2023-02-09T12:32:46.761Z,13.52
2023-02-09T12:35:38.758Z,14.32
2023-02-09T12:38:20.101Z,13.05
2023-02-09T12:41:06.666Z,13.48
2023-02-09T12:43:36.780Z,13.52
2023-02-09T12:46:26.557Z,13.77
2023-02-09T12:49:11.662Z,14.15
2023-02-09T12:51:54.471Z,14.15
2023-02-09T12:54:48.274Z,13.95
2023-02-09T12:57:15.389Z,14.07
2023-02-09T12:59:51.411Z,14.55
2023-02-09T13:02:25.952Z,13.75
2023-02-09T13:05:18.982Z,13.10
2023-02-09T13:08:15.895Z,15.10
2023-02-09T13:11:06.379Z,13.88
2023-02-09T13:13:45.986Z,13.85
2023-02-09T13:16:24.628Z,14.95
2023-02-09T13:19:18.167Z,14.32
2023-02-09T13:22:22.266Z,14.40
2023-02-09T13:25:16.652Z,15.45
2023-02-09T13:27:47.373Z,13.85
2023-02-09T13:30:30.345Z,15.25
2023-02-09T13:33:27.088Z,15.48
2023-02-09T13:36:16.255Z,14.95
2023-02-09T13:38:50.057Z,15.43
2023-02-09T13:41:38.515Z,15.43
2023-02-09T13:44:26.841Z,14.07
2023-02-09T13:47:00.607Z,15.00
2023-02-09T13:49:29.897Z,14.20
2023-02-09T13:52:22.166Z,16.77
2023-02-09T13:54:49.947Z,15.45
2023-02-09T13:57:35.132Z,15.80
2023-02-09T14:00:16.958Z,15.35
2023-02-09T14:03:01.421Z,16.00
2023-02-09T14:06:02.877Z,16.42
2023-02-09T14:08:32.554Z,16.50
2023-02-09T14:11:41.564Z,16.48
2023-02-09T14:14:49.433Z,17.40
2023-02-09T14:17:34.584Z,16.10
2023-02-09T14:20:03.150Z,15.90
2023-02-09T14:22:39.382Z,15.93
2023-02-09T14:25:15.230Z,17.23
2023-02-09T14:27:47.599Z,17.38
2023-02-09T14:30:32.037Z,16.92
2023-02-09T14:33:03.334Z,17.05
2023-02-09T14:35:41.393Z,16.63
2023-02-09T14:38:42.657Z,17.02
2023-02-09T14:41:31.841Z,16.73
2023-02-09T14:44:19.096Z,17.70
2023-02-09T14:46:51.207Z,17.75
2023-02-09T14:49:19.925Z,16.95
2023-02-09T14:51:48.969Z,17.00
2023-02-09T14:54:30.883Z,17.75
2023-02-09T14:57:00.851Z,17.60
2023-02-09T14:59:28.261Z,17.65
2023-02-09T15:01:55.716Z,17.80
2023-02-09T15:04:22.688Z,17.65
2023-02-09T15:07:01.676Z,17.25
2023-02-09T15:09:38.083Z,16.13
2023-02-09T15:12:07.284Z,17.20
2023-02-09T15:14:41.523Z,17.50
2023-02-09T15:17:20.189Z,17.42
2023-02-09T15:19:47.679Z,18.50
2023-02-09T15:22:16.070Z,17.85
2023-02-09T15:24:46.263Z,18.77
2023-02-09T15:27:41.451Z,18.48
2023-02-09T15:30:27.534Z,18.00
2023-02-09T15:32:54.648Z,18.23
2023-02-09T15:35:25.194Z,16.38
2023-02-09T15:37:56.524Z,17.13
2023-02-09T15:40:56.622Z,16.83
2023-02-09T15:43:44.532Z,18.38
2023-02-09T15:46:31.133Z,17.95
2023-02-09T15:48:58.220Z,18.40
2023-02-09T15:51:28.621Z,18.20
2023-02-09T15:54:02.055Z,18.38
2023-02-09T15:56:29.338Z,17.92
2023-02-09T15:59:03.359Z,19.60
2023-02-09T16:01:34.342Z,19.33
2023-02-09T16:04:13.519Z,18.20
2023-02-09T16:06:53.144Z,18.45
2023-02-09T16:09:26.576Z,18.77
2023-02-09T16:11:53.750Z,18.63
2023-02-09T16:14:24.062Z,19.45
2023-02-09T16:16:53.108Z,19.38
2023-02-09T16:19:21.444Z,19.70
2023-02-09T16:21:53.925Z,19.42
2023-02-09T16:24:32.688Z,19.52
2023-02-09T16:27:02.924Z,19.20
2023-02-09T16:29:29.916Z,19.05
2023-02-09T16:31:56.861Z,19.73
2023-02-09T16:34:23.769Z,20.35
2023-02-09T16:36:50.818Z,20.30
2023-02-09T16:39:21.086Z,18.52
2023-02-09T16:41:50.591Z,21.00
2023-02-09T16:44:30.375Z,20.90
2023-02-09T16:47:01.244Z,19.75
2023-02-09T16:49:42.751Z,20.75
2023-02-09T16:52:19.706Z,20.83
2023-02-09T16:54:50.681Z,19.95
2023-02-09T16:57:22.961Z,20.85
2023-02-09T16:59:51.285Z,20.05
2023-02-09T17:02:42.106Z,19.50
2023-02-09T17:05:31.506Z,20.45
2023-02-09T17:08:06.249Z,19.77
2023-02-09T17:10:35.401Z,20.38
2023-02-09T17:13:04.520Z,20.23
2023-02-09T17:15:39.565Z,20.35
2023-02-09T17:18:12.206Z,20.30
2023-02-09T17:20:45.929Z,21.55
2023-02-09T17:23:25.001Z,20.98
2023-02-09T17:25:55.090Z,22.27
2023-02-09T17:28:24.145Z,22.38
2023-02-09T17:30:56.428Z,22.45
2023-02-09T17:33:31.706Z,22.95
2023-02-09T17:38:47.476Z,22.05
2023-02-09T17:41:19.789Z,21.27
2023-02-09T17:43:47.833Z,20.92
2023-02-09T17:46:18.840Z,21.92
2023-02-09T17:48:47.298Z,22.08
2023-02-09T17:51:28.429Z,22.02
2023-02-09T17:53:55.551Z,21.65
2023-02-09T17:56:22.509Z,21.23
2023-02-09T17:58:49.363Z,22.35
2023-02-09T18:01:27.791Z,21.52
2023-02-09T18:04:01.370Z,21.20
2023-02-09T18:06:40.700Z,21.70
2023-02-09T18:09:12.419Z,22.67
2023-02-09T18:12:02.059Z,20.80
2023-02-09T18:14:32.696Z,22.60
2023-02-09T18:17:00.413Z,22.30
2023-02-09T18:19:27.636Z,21.48
2023-02-09T18:21:58.696Z,22.65
2023-02-09T18:24:32.067Z,23.13
2023-02-09T18:26:59.525Z,22.42
2023-02-09T18:29:29.466Z,21.60
2023-02-09T18:31:58.730Z,23.70
2023-02-09T18:34:26.436Z,21.80
2023-02-09T18:36:53.519Z,22.45
2023-02-09T18:39:20.566Z,23.65
2023-02-09T18:41:53.799Z,22.55
2023-02-09T18:44:28.422Z,22.77
2023-02-09T18:46:57.359Z,22.50
2023-02-09T18:49:24.167Z,22.20
2023-02-09T18:51:52.077Z,23.05
2023-02-09T18:54:19.403Z,23.83
2023-02-09T18:56:46.309Z,21.88
2023-02-09T18:59:13.217Z,21.20
2023-02-09T19:01:40.941Z,21.63
2023-02-09T19:04:08.123Z,22.05
2023-02-09T19:06:35.509Z,23.13
2023-02-09T19:09:02.729Z,22.42
2023-02-09T19:11:29.582Z,23.33
2023-02-09T19:14:14.800Z,22.90
2023-02-09T19:16:41.778Z,22.77
2023-02-09T19:19:09.417Z,21.90
2023-02-09T19:21:36.461Z,21.92
2023-02-09T19:24:04.877Z,22.60
2023-02-09T19:26:31.650Z,23.00
2023-02-09T19:28:58.473Z,22.23
2023-02-09T19:31:25.423Z,22.63
2023-02-09T19:33:58.160Z,21.13
2023-02-09T19:36:27.826Z,21.25
2023-02-09T19:38:56.438Z,21.73
2023-02-09T19:41:25.283Z,22.58
2023-02-09T19:43:57.555Z,21.48
2023-02-09T19:46:25.529Z,22.30
2023-02-09T19:48:55.298Z,21.88
2023-02-09T19:51:23.166Z,21.75
2023-02-09T19:53:50.336Z,21.17
2023-02-09T19:56:20.683Z,20.80
2023-02-09T19:58:47.634Z,19.98
2023-02-09T20:01:14.901Z,21.10
2023-02-09T20:03:42.453Z,21.08
2023-02-09T20:06:13.698Z,22.48
2023-02-09T20:08:41.390Z,23.25
2023-02-09T20:11:15.810Z,21.92
2023-02-09T20:13:42.727Z,21.08
2023-02-09T20:16:14.184Z,20.55
2023-02-09T20:18:41.115Z,21.15
2023-02-09T20:21:09.186Z,21.02
2023-02-09T20:23:37.742Z,20.00
2023-02-09T20:26:19.222Z,20.98
2023-02-09T20:28:46.186Z,20.50
2023-02-09T20:31:15.029Z,20.20
2023-02-09T20:33:43.245Z,20.00
2023-02-09T20:36:10.505Z,20.77
2023-02-09T20:38:38.282Z,20.02
2023-02-09T20:41:11.862Z,19.58
2023-02-09T20:43:58.417Z,19.65
2023-02-09T20:47:00.564Z,18.98
2023-02-09T20:49:36.853Z,20.48
2023-02-09T20:52:03.701Z,19.98
2023-02-09T20:54:31.897Z,19.23
2023-02-09T20:56:59.329Z,19.58
2023-02-09T20:59:26.210Z,21.05
2023-02-09T21:01:53.008Z,21.42
2023-02-09T21:04:20.129Z,20.85
2023-02-09T21:06:47.015Z,20.15
2023-02-09T21:09:15.473Z,21.02
2023-02-09T21:11:42.605Z,20.58
2023-02-09T21:14:21.663Z,20.30
2023-02-09T21:16:56.148Z,20.80
2023-02-09T21:19:24.979Z,20.75
2023-02-09T21:21:52.008Z,19.77
2023-02-09T21:24:19.090Z,20.73
2023-02-09T21:26:46.164Z,20.00
2023-02-09T21:29:14.516Z,21.17
2023-02-09T21:31:41.631Z,19.67
2023-02-09T21:34:13.234Z,20.10
2023-02-09T21:36:40.250Z,19.10
2023-02-09T21:39:07.193Z,19.77
2023-02-09T21:41:52.634Z,22.25
2023-02-09T21:44:19.774Z,20.33
2023-02-09T21:46:48.988Z,21.05
2023-02-09T21:49:15.958Z,19.40
2023-02-09T21:51:43.233Z,19.70
2023-02-09T21:54:16.164Z,19.38
2023-02-09T21:56:44.136Z,20.98
2023-02-09T21:59:11.766Z,20.40
2023-02-09T22:01:39.504Z,18.42
2023-02-09T22:04:06.495Z,20.55
2023-02-09T22:06:33.331Z,20.25
2023-02-09T22:09:03.758Z,19.00
2023-02-09T22:11:30.601Z,19.58
2023-02-09T22:13:57.517Z,19.98
2023-02-09T22:16:25.434Z,19.65
2023-02-09T22:18:52.713Z,18.98
2023-02-09T22:21:19.586Z,18.02
2023-02-09T22:23:46.587Z,18.45
2023-02-09T22:26:13.984Z,17.58
2023-02-09T22:28:42.408Z,18.63
2023-02-09T22:31:16.527Z,18.38
2023-02-09T22:33:43.716Z,16.60
2023-02-09T22:36:18.748Z,16.67
2023-02-09T22:38:45.806Z,15.77
2023-02-09T22:41:22.293Z,16.00
2023-02-09T22:43:59.060Z,16.65
2023-02-09T22:46:31.140Z,15.77
2023-02-09T22:49:01.683Z,15.80
2023-02-09T22:51:30.714Z,15.07
2023-02-09T22:53:59.716Z,14.93
2023-02-09T22:56:29.018Z,16.45
2023-02-09T22:58:58.216Z,16.60
2023-02-09T23:01:26.005Z,15.43
2023-02-09T23:03:53.974Z,14.38
2023-02-09T23:06:24.637Z,14.60
2023-02-09T23:09:00.897Z,14.75
2023-02-09T23:11:29.645Z,14.00
2023-02-09T23:14:09.202Z,14.23
2023-02-09T23:16:38.203Z,14.05
2023-02-09T23:19:08.217Z,13.43
2023-02-09T23:21:39.797Z,13.70
2023-02-09T23:24:08.731Z,13.82
2023-02-09T23:26:36.540Z,13.98
2023-02-09T23:29:08.267Z,13.48
2023-02-09T23:31:35.691Z,14.50
2023-02-09T23:34:02.695Z,14.55
2023-02-09T23:36:32.427Z,14.13
2023-02-09T23:39:04.074Z,13.93
2023-02-09T23:41:31.358Z,13.52
2023-02-09T23:43:59.367Z,14.25
2023-02-09T23:46:28.956Z,12.90
2023-02-09T23:48:57.009Z,12.95
2023-02-09T23:51:31.059Z,13.32
2023-02-09T23:54:01.898Z,13.60
2023-02-09T23:56:33.056Z,13.68
2023-02-09T23:58:59.841Z,12.38
